sensor_id;sensor_type;location;lat;lon;timestamp;P1;durP1;ratioP1;P2;durP2;ratioP2
51866;SDS011;52862;52.504;13.480;2023-03-01T00:01:25;68.90;;;21.40;;
51866;SDS011;52862;52.504;13.480;2023-03-01T00:03:53;75.00;;;20.87;;
51866;SDS011;52862;52.504;13.480;2023-03-01T00:06:21;65.37;;;20.70;;
51866;SDS011;52862;52.504;13.480;2023-03-01T00:08:48;67.57;;;21.60;;
51866;SDS011;52862;52.504;13.480;2023-03-01T00:11:16;52.27;;;19.50;;
51866;SDS011;52862;52.504;13.480;2023-03-01T00:13:44;60.00;;;19.53;;
51866;SDS011;52862;52.504;13.480;2023-03-01T00:16:13;54.87;;;20.60;;
51866;SDS011;52862;52.504;13.480;2023-03-01T00:18:42;77.60;;;22.13;;
51866;SDS011;52862;52.504;13.480;2023-03-01T00:21:09;65.00;;;21.67;;
51866;SDS011;52862;52.504;13.480;2023-03-01T00:23:36;53.40;;;20.20;;
51866;SDS011;52862;52.504;13.480;2023-03-01T00:26:05;53.70;;;18.33;;
51866;SDS011;52862;52.504;13.480;2023-03-01T00:28:32;51.77;;;18.83;;
51866;SDS011;52862;52.504;13.480;2023-03-01T00:31:02;50.80;;;17.23;;
51866;SDS011;52862;52.504;13.480;2023-03-01T00:33:29;63.97;;;19.67;;
51866;SDS011;52862;52.504;13.480;2023-03-01T00:35:58;54.17;;;17.07;;
51866;SDS011;52862;52.504;13.480;2023-03-01T00:38:24;46.33;;;17.63;;
51866;SDS011;52862;52.504;13.480;2023-03-01T00:40:52;50.47;;;17.50;;
51866;SDS011;52862;52.504;13.480;2023-03-01T00:43:18;53.33;;;17.83;;
51866;SDS011;52862;52.504;13.480;2023-03-01T00:45:45;57.27;;;19.20;;
51866;SDS011;52862;52.504;13.480;2023-03-01T00:48:12;54.63;;;19.10;;
51866;SDS011;52862;52.504;13.480;2023-03-01T00:50:39;54.30;;;18.30;;
51866;SDS011;52862;52.504;13.480;2023-03-01T00:53:06;54.30;;;17.97;;
51866;SDS011;52862;52.504;13.480;2023-03-01T00:55:33;55.30;;;17.60;;
51866;SDS011;52862;52.504;13.480;2023-03-01T00:58:01;49.87;;;17.53;;
51866;SDS011;52862;52.504;13.480;2023-03-01T01:00:28;47.20;;;17.70;;
51866;SDS011;52862;52.504;13.480;2023-03-01T01:02:55;67.20;;;18.80;;
51866;SDS011;52862;52.504;13.480;2023-03-01T01:05:22;46.27;;;16.33;;
51866;SDS011;52862;52.504;13.480;2023-03-01T01:07:48;58.37;;;16.93;;
51866;SDS011;52862;52.504;13.480;2023-03-01T01:10:16;48.33;;;16.93;;
51866;SDS011;52862;52.504;13.480;2023-03-01T01:12:43;60.47;;;17.83;;
51866;SDS011;52862;52.504;13.480;2023-03-01T01:15:10;50.03;;;16.47;;
51866;SDS011;52862;52.504;13.480;2023-03-01T01:17:39;50.20;;;16.47;;
51866;SDS011;52862;52.504;13.480;2023-03-01T01:20:07;43.03;;;15.53;;
51866;SDS011;52862;52.504;13.480;2023-03-01T01:22:35;44.53;;;15.63;;
51866;SDS011;52862;52.504;13.480;2023-03-01T01:25:01;37.50;;;16.03;;
51866;SDS011;52862;52.504;13.480;2023-03-01T01:27:29;56.03;;;16.60;;
51866;SDS011;52862;52.504;13.480;2023-03-01T01:29:56;42.40;;;16.17;;
51866;SDS011;52862;52.504;13.480;2023-03-01T01:32:22;57.83;;;16.93;;
51866;SDS011;52862;52.504;13.480;2023-03-01T01:34:52;49.70;;;16.37;;
51866;SDS011;52862;52.504;13.480;2023-03-01T01:37:19;45.27;;;16.00;;
51866;SDS011;52862;52.504;13.480;2023-03-01T01:39:45;50.40;;;15.30;;
51866;SDS011;52862;52.504;13.480;2023-03-01T01:42:13;40.53;;;15.13;;
51866;SDS011;52862;52.504;13.480;2023-03-01T01:44:44;41.60;;;15.77;;
51866;SDS011;52862;52.504;13.480;2023-03-01T01:47:13;47.30;;;15.50;;
51866;SDS011;52862;52.504;13.480;2023-03-01T01:49:43;52.00;;;15.00;;
51866;SDS011;52862;52.504;13.480;2023-03-01T01:52:14;42.77;;;14.87;;
51866;SDS011;52862;52.504;13.480;2023-03-01T01:54:47;40.20;;;14.77;;
51866;SDS011;52862;52.504;13.480;2023-03-01T01:57:17;37.37;;;14.53;;
51866;SDS011;52862;52.504;13.480;2023-03-01T01:59:48;43.90;;;14.37;;
51866;SDS011;52862;52.504;13.480;2023-03-01T02:02:18;35.20;;;13.87;;
51866;SDS011;52862;52.504;13.480;2023-03-01T02:04:45;38.00;;;15.37;;
51866;SDS011;52862;52.504;13.480;2023-03-01T02:07:14;40.20;;;15.33;;
51866;SDS011;52862;52.504;13.480;2023-03-01T02:09:43;45.13;;;14.77;;
51866;SDS011;52862;52.504;13.480;2023-03-01T02:12:12;41.53;;;14.67;;
51866;SDS011;52862;52.504;13.480;2023-03-01T02:14:40;35.17;;;14.67;;
51866;SDS011;52862;52.504;13.480;2023-03-01T02:17:07;46.83;;;16.23;;
51866;SDS011;52862;52.504;13.480;2023-03-01T02:19:39;34.30;;;15.33;;
51866;SDS011;52862;52.504;13.480;2023-03-01T02:22:15;39.37;;;16.00;;
51866;SDS011;52862;52.504;13.480;2023-03-01T02:24:48;40.37;;;15.10;;
51866;SDS011;52862;52.504;13.480;2023-03-01T02:27:24;42.87;;;16.13;;
51866;SDS011;52862;52.504;13.480;2023-03-01T02:29:58;41.00;;;15.47;;
51866;SDS011;52862;52.504;13.480;2023-03-01T02:32:25;38.67;;;15.90;;
51866;SDS011;52862;52.504;13.480;2023-03-01T02:34:53;48.33;;;16.77;;
51866;SDS011;52862;52.504;13.480;2023-03-01T02:37:21;42.27;;;16.70;;
51866;SDS011;52862;52.504;13.480;2023-03-01T02:39:51;35.83;;;14.83;;
51866;SDS011;52862;52.504;13.480;2023-03-01T02:42:25;41.97;;;15.40;;
51866;SDS011;52862;52.504;13.480;2023-03-01T02:44:54;34.03;;;15.80;;
51866;SDS011;52862;52.504;13.480;2023-03-01T02:47:21;42.53;;;15.83;;
51866;SDS011;52862;52.504;13.480;2023-03-01T02:49:48;38.77;;;15.20;;
51866;SDS011;52862;52.504;13.480;2023-03-01T02:52:27;38.43;;;15.33;;
51866;SDS011;52862;52.504;13.480;2023-03-01T02:55:03;40.80;;;15.37;;
51866;SDS011;52862;52.504;13.480;2023-03-01T02:57:34;41.30;;;14.97;;
51866;SDS011;52862;52.504;13.480;2023-03-01T03:00:04;41.27;;;15.80;;
51866;SDS011;52862;52.504;13.480;2023-03-01T03:02:34;39.67;;;15.77;;
51866;SDS011;52862;52.504;13.480;2023-03-01T03:05:05;34.97;;;14.93;;
51866;SDS011;52862;52.504;13.480;2023-03-01T03:07:34;38.50;;;14.43;;
51866;SDS011;52862;52.504;13.480;2023-03-01T03:10:02;47.20;;;16.53;;
51866;SDS011;52862;52.504;13.480;2023-03-01T03:12:30;39.77;;;16.17;;
51866;SDS011;52862;52.504;13.480;2023-03-01T03:14:57;45.67;;;15.80;;
51866;SDS011;52862;52.504;13.480;2023-03-01T03:17:24;44.80;;;17.60;;
51866;SDS011;52862;52.504;13.480;2023-03-01T03:19:51;44.67;;;17.13;;
51866;SDS011;52862;52.504;13.480;2023-03-01T03:22:18;48.90;;;18.13;;
51866;SDS011;52862;52.504;13.480;2023-03-01T03:24:44;52.67;;;17.63;;
51866;SDS011;52862;52.504;13.480;2023-03-01T03:27:11;42.87;;;17.17;;
51866;SDS011;52862;52.504;13.480;2023-03-01T03:29:37;44.37;;;17.70;;
51866;SDS011;52862;52.504;13.480;2023-03-01T03:32:04;43.07;;;16.50;;
51866;SDS011;52862;52.504;13.480;2023-03-01T03:34:31;43.80;;;17.53;;
51866;SDS011;52862;52.504;13.480;2023-03-01T03:36:58;46.07;;;17.97;;
51866;SDS011;52862;52.504;13.480;2023-03-01T03:39:25;45.90;;;20.53;;
51866;SDS011;52862;52.504;13.480;2023-03-01T03:41:52;48.37;;;20.80;;
51866;SDS011;52862;52.504;13.480;2023-03-01T03:44:19;65.50;;;24.73;;
51866;SDS011;52862;52.504;13.480;2023-03-01T03:46:45;55.53;;;22.57;;
51866;SDS011;52862;52.504;13.480;2023-03-01T03:49:12;68.40;;;20.93;;
51866;SDS011;52862;52.504;13.480;2023-03-01T03:51:39;53.90;;;22.00;;
51866;SDS011;52862;52.504;13.480;2023-03-01T03:54:06;57.97;;;20.90;;
51866;SDS011;52862;52.504;13.480;2023-03-01T03:56:33;56.47;;;21.47;;
51866;SDS011;52862;52.504;13.480;2023-03-01T03:59:00;50.67;;;22.37;;
51866;SDS011;52862;52.504;13.480;2023-03-01T04:01:27;51.17;;;21.80;;
51866;SDS011;52862;52.504;13.480;2023-03-01T04:03:54;49.53;;;21.20;;
51866;SDS011;52862;52.504;13.480;2023-03-01T04:06:20;51.50;;;21.63;;
51866;SDS011;52862;52.504;13.480;2023-03-01T04:08:47;65.67;;;21.93;;
51866;SDS011;52862;52.504;13.480;2023-03-01T04:11:26;58.07;;;20.73;;
51866;SDS011;52862;52.504;13.480;2023-03-01T04:13:53;64.70;;;23.73;;
51866;SDS011;52862;52.504;13.480;2023-03-01T04:16:20;62.70;;;23.70;;
51866;SDS011;52862;52.504;13.480;2023-03-01T04:18:47;69.17;;;23.23;;
51866;SDS011;52862;52.504;13.480;2023-03-01T04:21:14;60.83;;;22.47;;
51866;SDS011;52862;52.504;13.480;2023-03-01T04:23:41;60.10;;;22.13;;
51866;SDS011;52862;52.504;13.480;2023-03-01T04:26:07;86.40;;;24.60;;
51866;SDS011;52862;52.504;13.480;2023-03-01T04:28:36;57.83;;;23.90;;
51866;SDS011;52862;52.504;13.480;2023-03-01T04:31:06;55.87;;;23.13;;
51866;SDS011;52862;52.504;13.480;2023-03-01T04:33:39;61.03;;;22.97;;
51866;SDS011;52862;52.504;13.480;2023-03-01T04:36:07;64.43;;;23.83;;
51866;SDS011;52862;52.504;13.480;2023-03-01T04:38:35;69.23;;;24.60;;
51866;SDS011;52862;52.504;13.480;2023-03-01T04:41:03;63.93;;;23.50;;
51866;SDS011;52862;52.504;13.480;2023-03-01T04:43:30;57.23;;;22.50;;
51866;SDS011;52862;52.504;13.480;2023-03-01T04:46:00;62.37;;;23.53;;
51866;SDS011;52862;52.504;13.480;2023-03-01T04:48:28;62.67;;;26.33;;
51866;SDS011;52862;52.504;13.480;2023-03-01T04:50:55;56.87;;;22.73;;
51866;SDS011;52862;52.504;13.480;2023-03-01T04:53:22;75.30;;;23.87;;
51866;SDS011;52862;52.504;13.480;2023-03-01T04:55:50;64.77;;;24.53;;
51866;SDS011;52862;52.504;13.480;2023-03-01T04:58:17;66.10;;;23.40;;
51866;SDS011;52862;52.504;13.480;2023-03-01T05:00:44;54.03;;;22.87;;
51866;SDS011;52862;52.504;13.480;2023-03-01T05:03:12;52.60;;;22.20;;
51866;SDS011;52862;52.504;13.480;2023-03-01T05:05:44;60.50;;;22.50;;
51866;SDS011;52862;52.504;13.480;2023-03-01T05:08:11;57.20;;;22.10;;
51866;SDS011;52862;52.504;13.480;2023-03-01T05:10:43;51.77;;;22.27;;
51866;SDS011;52862;52.504;13.480;2023-03-01T05:13:11;55.17;;;20.90;;
51866;SDS011;52862;52.504;13.480;2023-03-01T05:15:40;45.53;;;21.83;;
51866;SDS011;52862;52.504;13.480;2023-03-01T05:18:07;59.70;;;21.53;;
51866;SDS011;52862;52.504;13.480;2023-03-01T05:20:37;52.73;;;22.33;;
51866;SDS011;52862;52.504;13.480;2023-03-01T05:23:04;53.90;;;20.47;;
51866;SDS011;52862;52.504;13.480;2023-03-01T05:25:31;54.43;;;22.40;;
51866;SDS011;52862;52.504;13.480;2023-03-01T05:27:59;54.10;;;22.63;;
51866;SDS011;52862;52.504;13.480;2023-03-01T05:30:30;58.43;;;22.93;;
51866;SDS011;52862;52.504;13.480;2023-03-01T05:32:57;53.67;;;21.73;;
51866;SDS011;52862;52.504;13.480;2023-03-01T05:35:24;53.80;;;20.17;;
51866;SDS011;52862;52.504;13.480;2023-03-01T05:37:52;45.87;;;19.10;;
51866;SDS011;52862;52.504;13.480;2023-03-01T05:40:19;49.70;;;21.40;;
51866;SDS011;52862;52.504;13.480;2023-03-01T05:42:48;59.43;;;23.77;;
51866;SDS011;52862;52.504;13.480;2023-03-01T05:45:17;58.90;;;23.80;;
51866;SDS011;52862;52.504;13.480;2023-03-01T05:47:45;42.93;;;20.67;;
51866;SDS011;52862;52.504;13.480;2023-03-01T05:50:13;53.27;;;21.77;;
51866;SDS011;52862;52.504;13.480;2023-03-01T05:52:44;58.30;;;22.87;;
51866;SDS011;52862;52.504;13.480;2023-03-01T05:55:12;55.43;;;23.33;;
51866;SDS011;52862;52.504;13.480;2023-03-01T05:57:39;56.33;;;22.37;;
51866;SDS011;52862;52.504;13.480;2023-03-01T06:00:06;60.03;;;22.00;;
51866;SDS011;52862;52.504;13.480;2023-03-01T06:02:34;46.87;;;20.23;;
51866;SDS011;52862;52.504;13.480;2023-03-01T06:05:01;54.87;;;21.40;;
51866;SDS011;52862;52.504;13.480;2023-03-01T06:07:28;46.57;;;20.63;;
51866;SDS011;52862;52.504;13.480;2023-03-01T06:09:55;54.83;;;24.33;;
51866;SDS011;52862;52.504;13.480;2023-03-01T06:12:22;55.87;;;22.93;;
51866;SDS011;52862;52.504;13.480;2023-03-01T06:14:49;52.73;;;22.03;;
51866;SDS011;52862;52.504;13.480;2023-03-01T06:17:16;47.77;;;20.47;;
51866;SDS011;52862;52.504;13.480;2023-03-01T06:19:43;42.73;;;20.40;;
51866;SDS011;52862;52.504;13.480;2023-03-01T06:22:09;58.17;;;21.60;;
51866;SDS011;52862;52.504;13.480;2023-03-01T06:24:36;51.37;;;21.97;;
51866;SDS011;52862;52.504;13.480;2023-03-01T06:27:02;52.60;;;21.63;;
51866;SDS011;52862;52.504;13.480;2023-03-01T06:29:30;60.50;;;23.57;;
51866;SDS011;52862;52.504;13.480;2023-03-01T06:31:57;57.57;;;21.70;;
51866;SDS011;52862;52.504;13.480;2023-03-01T06:34:24;59.47;;;22.20;;
51866;SDS011;52862;52.504;13.480;2023-03-01T06:36:51;63.73;;;22.90;;
51866;SDS011;52862;52.504;13.480;2023-03-01T06:39:18;51.47;;;23.97;;
51866;SDS011;52862;52.504;13.480;2023-03-01T06:41:44;59.40;;;24.23;;
51866;SDS011;52862;52.504;13.480;2023-03-01T06:44:11;65.33;;;29.13;;
51866;SDS011;52862;52.504;13.480;2023-03-01T06:46:39;55.53;;;23.53;;
51866;SDS011;52862;52.504;13.480;2023-03-01T06:49:06;53.10;;;22.57;;
51866;SDS011;52862;52.504;13.480;2023-03-01T06:51:35;59.00;;;22.47;;
51866;SDS011;52862;52.504;13.480;2023-03-01T06:54:02;61.70;;;23.90;;
51866;SDS011;52862;52.504;13.480;2023-03-01T06:56:29;59.63;;;24.73;;
51866;SDS011;52862;52.504;13.480;2023-03-01T06:58:57;53.77;;;22.23;;
51866;SDS011;52862;52.504;13.480;2023-03-01T07:01:23;54.30;;;21.30;;
51866;SDS011;52862;52.504;13.480;2023-03-01T07:03:51;47.80;;;21.00;;
51866;SDS011;52862;52.504;13.480;2023-03-01T07:06:17;54.20;;;20.00;;
51866;SDS011;52862;52.504;13.480;2023-03-01T07:08:44;47.07;;;19.53;;
51866;SDS011;52862;52.504;13.480;2023-03-01T07:11:11;51.97;;;19.67;;
51866;SDS011;52862;52.504;13.480;2023-03-01T07:13:38;41.47;;;17.93;;
51866;SDS011;52862;52.504;13.480;2023-03-01T07:16:06;45.73;;;20.30;;
51866;SDS011;52862;52.504;13.480;2023-03-01T07:18:33;42.90;;;19.33;;
51866;SDS011;52862;52.504;13.480;2023-03-01T07:21:04;49.83;;;21.27;;
51866;SDS011;52862;52.504;13.480;2023-03-01T07:23:31;54.93;;;20.80;;
51866;SDS011;52862;52.504;13.480;2023-03-01T07:25:58;55.27;;;19.60;;
51866;SDS011;52862;52.504;13.480;2023-03-01T07:28:25;48.17;;;19.53;;
51866;SDS011;52862;52.504;13.480;2023-03-01T07:30:53;47.87;;;19.60;;
51866;SDS011;52862;52.504;13.480;2023-03-01T07:33:20;58.03;;;19.73;;
51866;SDS011;52862;52.504;13.480;2023-03-01T07:35:47;64.50;;;20.63;;
51866;SDS011;52862;52.504;13.480;2023-03-01T07:38:15;48.67;;;20.27;;
51866;SDS011;52862;52.504;13.480;2023-03-01T07:40:41;46.90;;;18.77;;
51866;SDS011;52862;52.504;13.480;2023-03-01T07:43:08;52.07;;;20.20;;
51866;SDS011;52862;52.504;13.480;2023-03-01T07:45:35;55.10;;;19.97;;
51866;SDS011;52862;52.504;13.480;2023-03-01T07:48:02;51.77;;;19.57;;
51866;SDS011;52862;52.504;13.480;2023-03-01T07:50:28;46.63;;;20.10;;
51866;SDS011;52862;52.504;13.480;2023-03-01T07:52:55;47.80;;;19.73;;
51866;SDS011;52862;52.504;13.480;2023-03-01T07:55:22;65.03;;;19.90;;
51866;SDS011;52862;52.504;13.480;2023-03-01T07:57:49;53.57;;;21.90;;
51866;SDS011;52862;52.504;13.480;2023-03-01T08:00:16;56.13;;;21.20;;
51866;SDS011;52862;52.504;13.480;2023-03-01T08:02:44;44.53;;;18.97;;
51866;SDS011;52862;52.504;13.480;2023-03-01T08:05:10;52.60;;;20.40;;
51866;SDS011;52862;52.504;13.480;2023-03-01T08:07:37;52.57;;;19.00;;
51866;SDS011;52862;52.504;13.480;2023-03-01T08:10:04;52.77;;;20.57;;
51866;SDS011;52862;52.504;13.480;2023-03-01T08:12:32;45.00;;;18.93;;
51866;SDS011;52862;52.504;13.480;2023-03-01T08:14:59;47.97;;;18.43;;
51866;SDS011;52862;52.504;13.480;2023-03-01T08:17:25;44.73;;;19.60;;
51866;SDS011;52862;52.504;13.480;2023-03-01T08:19:52;63.77;;;18.70;;
51866;SDS011;52862;52.504;13.480;2023-03-01T08:22:19;47.53;;;18.00;;
51866;SDS011;52862;52.504;13.480;2023-03-01T08:24:46;43.10;;;16.97;;
51866;SDS011;52862;52.504;13.480;2023-03-01T08:27:14;39.17;;;15.33;;
51866;SDS011;52862;52.504;13.480;2023-03-01T08:29:42;43.80;;;15.97;;
51866;SDS011;52862;52.504;13.480;2023-03-01T08:32:09;32.67;;;15.10;;
51866;SDS011;52862;52.504;13.480;2023-03-01T08:34:35;43.13;;;15.73;;
51866;SDS011;52862;52.504;13.480;2023-03-01T08:37:02;27.20;;;13.40;;
51866;SDS011;52862;52.504;13.480;2023-03-01T08:39:29;31.27;;;12.17;;
51866;SDS011;52862;52.504;13.480;2023-03-01T08:41:56;32.60;;;11.60;;
51866;SDS011;52862;52.504;13.480;2023-03-01T08:44:23;30.67;;;11.67;;
51866;SDS011;52862;52.504;13.480;2023-03-01T08:46:51;48.97;;;17.57;;
51866;SDS011;52862;52.504;13.480;2023-03-01T08:49:18;27.40;;;12.23;;
51866;SDS011;52862;52.504;13.480;2023-03-01T08:51:46;39.43;;;14.30;;
51866;SDS011;52862;52.504;13.480;2023-03-01T08:54:15;24.37;;;11.00;;
51866;SDS011;52862;52.504;13.480;2023-03-01T08:56:44;22.50;;;10.43;;
51866;SDS011;52862;52.504;13.480;2023-03-01T08:59:11;26.33;;;10.53;;
51866;SDS011;52862;52.504;13.480;2023-03-01T09:01:39;24.83;;;10.37;;
51866;SDS011;52862;52.504;13.480;2023-03-01T09:04:09;26.03;;;10.40;;
51866;SDS011;52862;52.504;13.480;2023-03-01T09:06:36;19.70;;;9.13;;
51866;SDS011;52862;52.504;13.480;2023-03-01T09:09:04;21.13;;;9.67;;
51866;SDS011;52862;52.504;13.480;2023-03-01T09:11:31;25.97;;;9.10;;
51866;SDS011;52862;52.504;13.480;2023-03-01T09:13:58;22.10;;;8.97;;
51866;SDS011;52862;52.504;13.480;2023-03-01T09:16:25;27.17;;;9.20;;
51866;SDS011;52862;52.504;13.480;2023-03-01T09:18:52;18.13;;;8.20;;
51866;SDS011;52862;52.504;13.480;2023-03-01T09:21:21;24.23;;;9.23;;
51866;SDS011;52862;52.504;13.480;2023-03-01T09:24:05;24.03;;;8.93;;
51866;SDS011;52862;52.504;13.480;2023-03-01T09:26:32;17.40;;;8.10;;
51866;SDS011;52862;52.504;13.480;2023-03-01T09:28:59;36.50;;;8.93;;
51866;SDS011;52862;52.504;13.480;2023-03-01T09:31:26;22.73;;;8.70;;
51866;SDS011;52862;52.504;13.480;2023-03-01T09:33:53;18.97;;;7.73;;
51866;SDS011;52862;52.504;13.480;2023-03-01T09:36:22;16.93;;;6.17;;
51866;SDS011;52862;52.504;13.480;2023-03-01T09:38:51;18.77;;;6.63;;
51866;SDS011;52862;52.504;13.480;2023-03-01T09:41:22;17.47;;;7.00;;
51866;SDS011;52862;52.504;13.480;2023-03-01T09:44:01;14.57;;;5.83;;
51866;SDS011;52862;52.504;13.480;2023-03-01T09:46:40;23.23;;;7.47;;
51866;SDS011;52862;52.504;13.480;2023-03-01T09:49:10;15.47;;;6.30;;
51866;SDS011;52862;52.504;13.480;2023-03-01T09:51:48;19.27;;;6.87;;
51866;SDS011;52862;52.504;13.480;2023-03-01T09:54:23;19.17;;;6.00;;
51866;SDS011;52862;52.504;13.480;2023-03-01T09:56:56;17.67;;;6.40;;
51866;SDS011;52862;52.504;13.480;2023-03-01T09:59:32;23.50;;;6.53;;
51866;SDS011;52862;52.504;13.480;2023-03-01T10:02:14;17.83;;;6.00;;
51866;SDS011;52862;52.504;13.480;2023-03-01T10:04:49;19.33;;;6.37;;
51866;SDS011;52862;52.504;13.480;2023-03-01T10:07:21;12.17;;;6.13;;
51866;SDS011;52862;52.504;13.480;2023-03-01T10:09:54;15.07;;;5.37;;
51866;SDS011;52862;52.504;13.480;2023-03-01T10:12:22;11.03;;;4.47;;
51866;SDS011;52862;52.504;13.480;2023-03-01T10:14:54;9.87;;;4.57;;
51866;SDS011;52862;52.504;13.480;2023-03-01T10:17:27;18.77;;;4.90;;
51866;SDS011;52862;52.504;13.480;2023-03-01T10:20:09;18.17;;;5.70;;
51866;SDS011;52862;52.504;13.480;2023-03-01T10:22:44;13.37;;;5.83;;
51866;SDS011;52862;52.504;13.480;2023-03-01T10:25:17;14.50;;;5.63;;
51866;SDS011;52862;52.504;13.480;2023-03-01T10:27:54;16.80;;;6.90;;
51866;SDS011;52862;52.504;13.480;2023-03-01T10:30:29;15.43;;;6.90;;
51866;SDS011;52862;52.504;13.480;2023-03-01T10:33:00;18.60;;;6.07;;
51866;SDS011;52862;52.504;13.480;2023-03-01T10:35:29;14.97;;;6.47;;
51866;SDS011;52862;52.504;13.480;2023-03-01T10:38:03;21.20;;;7.23;;
51866;SDS011;52862;52.504;13.480;2023-03-01T10:40:31;20.13;;;6.13;;
51866;SDS011;52862;52.504;13.480;2023-03-01T10:42:59;16.93;;;5.73;;
51866;SDS011;52862;52.504;13.480;2023-03-01T10:45:32;15.20;;;5.37;;
51866;SDS011;52862;52.504;13.480;2023-03-01T10:48:05;20.63;;;7.00;;
51866;SDS011;52862;52.504;13.480;2023-03-01T10:50:36;20.23;;;5.73;;
51866;SDS011;52862;52.504;13.480;2023-03-01T10:53:16;12.13;;;5.30;;
51866;SDS011;52862;52.504;13.480;2023-03-01T10:56:02;12.87;;;4.97;;
51866;SDS011;52862;52.504;13.480;2023-03-01T10:58:31;11.77;;;4.03;;
51866;SDS011;52862;52.504;13.480;2023-03-01T11:00:59;13.50;;;4.83;;
51866;SDS011;52862;52.504;13.480;2023-03-01T11:03:28;13.77;;;4.33;;
51866;SDS011;52862;52.504;13.480;2023-03-01T11:06:01;23.30;;;4.60;;
51866;SDS011;52862;52.504;13.480;2023-03-01T11:08:32;10.80;;;4.97;;
51866;SDS011;52862;52.504;13.480;2023-03-01T11:11:04;9.57;;;4.57;;
51866;SDS011;52862;52.504;13.480;2023-03-01T11:13:50;14.63;;;4.53;;
51866;SDS011;52862;52.504;13.480;2023-03-01T11:16:24;8.40;;;4.30;;
51866;SDS011;52862;52.504;13.480;2023-03-01T11:18:58;17.10;;;5.27;;
51866;SDS011;52862;52.504;13.480;2023-03-01T11:21:26;10.97;;;4.70;;
51866;SDS011;52862;52.504;13.480;2023-03-01T11:23:58;17.40;;;4.53;;
51866;SDS011;52862;52.504;13.480;2023-03-01T11:26:27;11.83;;;5.00;;
51866;SDS011;52862;52.504;13.480;2023-03-01T11:28:56;11.40;;;4.63;;
51866;SDS011;52862;52.504;13.480;2023-03-01T11:31:29;9.90;;;3.63;;
51866;SDS011;52862;52.504;13.480;2023-03-01T11:33:59;8.93;;;4.27;;
51866;SDS011;52862;52.504;13.480;2023-03-01T11:36:32;19.37;;;5.27;;
51866;SDS011;52862;52.504;13.480;2023-03-01T11:39:09;8.33;;;4.43;;
51866;SDS011;52862;52.504;13.480;2023-03-01T11:41:44;9.97;;;4.17;;
51866;SDS011;52862;52.504;13.480;2023-03-01T11:44:18;14.93;;;4.60;;
51866;SDS011;52862;52.504;13.480;2023-03-01T11:46:58;15.27;;;4.50;;
51866;SDS011;52862;52.504;13.480;2023-03-01T11:49:45;13.10;;;4.27;;
51866;SDS011;52862;52.504;13.480;2023-03-01T11:52:35;9.43;;;4.13;;
51866;SDS011;52862;52.504;13.480;2023-03-01T11:55:24;8.00;;;3.47;;
51866;SDS011;52862;52.504;13.480;2023-03-01T11:58:08;9.00;;;3.50;;
51866;SDS011;52862;52.504;13.480;2023-03-01T12:00:56;15.37;;;3.67;;
51866;SDS011;52862;52.504;13.480;2023-03-01T12:03:33;13.43;;;3.47;;
51866;SDS011;52862;52.504;13.480;2023-03-01T12:06:28;7.27;;;2.90;;
51866;SDS011;52862;52.504;13.480;2023-03-01T12:09:25;17.47;;;3.07;;
51866;SDS011;52862;52.504;13.480;2023-03-01T12:15:00;6.17;;;3.00;;
51866;SDS011;52862;52.504;13.480;2023-03-01T12:17:44;10.47;;;3.03;;
51866;SDS011;52862;52.504;13.480;2023-03-01T12:20:26;5.43;;;2.80;;
51866;SDS011;52862;52.504;13.480;2023-03-01T12:23:05;6.00;;;2.80;;
51866;SDS011;52862;52.504;13.480;2023-03-01T12:25:48;10.30;;;3.20;;
51866;SDS011;52862;52.504;13.480;2023-03-01T12:28:28;6.00;;;3.07;;
51866;SDS011;52862;52.504;13.480;2023-03-01T12:34:03;17.83;;;3.90;;
51866;SDS011;52862;52.504;13.480;2023-03-01T12:36:43;13.37;;;3.17;;
51866;SDS011;52862;52.504;13.480;2023-03-01T12:39:32;13.40;;;2.87;;
51866;SDS011;52862;52.504;13.480;2023-03-01T12:42:10;6.70;;;3.00;;
51866;SDS011;52862;52.504;13.480;2023-03-01T12:44:52;20.20;;;4.00;;
51866;SDS011;52862;52.504;13.480;2023-03-01T12:47:44;8.70;;;3.53;;
51866;SDS011;52862;52.504;13.480;2023-03-01T12:50:26;12.43;;;3.07;;
51866;SDS011;52862;52.504;13.480;2023-03-01T12:53:04;11.47;;;3.43;;
51866;SDS011;52862;52.504;13.480;2023-03-01T12:55:32;7.77;;;2.73;;
51866;SDS011;52862;52.504;13.480;2023-03-01T12:58:05;13.33;;;2.90;;
51866;SDS011;52862;52.504;13.480;2023-03-01T13:00:50;12.20;;;3.50;;
51866;SDS011;52862;52.504;13.480;2023-03-01T13:03:29;13.50;;;3.63;;
51866;SDS011;52862;52.504;13.480;2023-03-01T13:06:07;16.50;;;5.80;;
51866;SDS011;52862;52.504;13.480;2023-03-01T13:08:39;5.93;;;3.37;;
51866;SDS011;52862;52.504;13.480;2023-03-01T13:11:15;10.77;;;2.80;;
51866;SDS011;52862;52.504;13.480;2023-03-01T13:13:44;8.57;;;2.57;;
51866;SDS011;52862;52.504;13.480;2023-03-01T13:16:38;9.63;;;2.87;;
51866;SDS011;52862;52.504;13.480;2023-03-01T13:19:10;4.73;;;2.37;;
51866;SDS011;52862;52.504;13.480;2023-03-01T13:21:41;7.97;;;2.60;;
51866;SDS011;52862;52.504;13.480;2023-03-01T13:24:24;5.63;;;2.40;;
51866;SDS011;52862;52.504;13.480;2023-03-01T13:29:55;8.00;;;3.03;;
51866;SDS011;52862;52.504;13.480;2023-03-01T13:32:26;5.97;;;3.30;;
51866;SDS011;52862;52.504;13.480;2023-03-01T13:41:05;7.93;;;3.43;;
51866;SDS011;52862;52.504;13.480;2023-03-01T13:43:32;17.40;;;3.60;;
51866;SDS011;52862;52.504;13.480;2023-03-01T13:46:02;12.70;;;4.10;;
51866;SDS011;52862;52.504;13.480;2023-03-01T13:48:37;15.73;;;3.40;;
51866;SDS011;52862;52.504;13.480;2023-03-01T13:51:07;11.77;;;3.40;;
51866;SDS011;52862;52.504;13.480;2023-03-01T13:53:37;8.27;;;3.30;;
51866;SDS011;52862;52.504;13.480;2023-03-01T13:56:07;6.83;;;3.17;;
51866;SDS011;52862;52.504;13.480;2023-03-01T13:58:44;6.90;;;3.30;;
51866;SDS011;52862;52.504;13.480;2023-03-01T14:01:18;14.17;;;4.57;;
51866;SDS011;52862;52.504;13.480;2023-03-01T14:03:49;14.77;;;3.77;;
51866;SDS011;52862;52.504;13.480;2023-03-01T14:06:17;9.20;;;3.90;;
51866;SDS011;52862;52.504;13.480;2023-03-01T14:08:48;8.00;;;3.20;;
51866;SDS011;52862;52.504;13.480;2023-03-01T14:11:29;12.60;;;3.37;;
51866;SDS011;52862;52.504;13.480;2023-03-01T14:17:14;7.47;;;3.37;;
51866;SDS011;52862;52.504;13.480;2023-03-01T14:19:56;8.07;;;3.57;;
51866;SDS011;52862;52.504;13.480;2023-03-01T14:22:25;5.33;;;3.00;;
51866;SDS011;52862;52.504;13.480;2023-03-01T14:24:55;9.37;;;2.87;;
51866;SDS011;52862;52.504;13.480;2023-03-01T14:27:25;12.43;;;3.20;;
51866;SDS011;52862;52.504;13.480;2023-03-01T14:29:55;6.90;;;2.93;;
51866;SDS011;52862;52.504;13.480;2023-03-01T14:32:24;5.33;;;2.90;;
51866;SDS011;52862;52.504;13.480;2023-03-01T14:34:52;9.77;;;3.08;;
51866;SDS011;52862;52.504;13.480;2023-03-01T14:37:21;10.33;;;2.80;;
51866;SDS011;52862;52.504;13.480;2023-03-01T14:39:50;5.97;;;2.97;;
51866;SDS011;52862;52.504;13.480;2023-03-01T14:42:17;8.43;;;3.50;;
51866;SDS011;52862;52.504;13.480;2023-03-01T14:44:46;7.30;;;3.27;;
51866;SDS011;52862;52.504;13.480;2023-03-01T14:47:15;12.57;;;3.87;;
51866;SDS011;52862;52.504;13.480;2023-03-01T14:49:51;12.43;;;3.40;;
51866;SDS011;52862;52.504;13.480;2023-03-01T14:52:25;7.07;;;3.27;;